Hydaburg, Alaska
Current Conditions -  °F | °C
As of 11:56 PM on Friday 21 Nov 2014 (Local Time) from PAHY Reporting Station
Overcast Overcast  
Wind Chill: 40°   Ceiling: 2800
Heat Index: 43°   Visibility: 10mi
Dew Point: 34°   Wind: 5mph
Humidity: 70%   Direction: 90°E
Pressure: 29.32"   Gusts: NA
Location:  55.21°N, 132.82°W
Report Text: PAHY 220856Z AUTO 09004KT 10SM BKN028 BKN033 OVC039 06/01 A2932 RMK AO1 52017
Loading
Personal Weather Stations






























Interactive Weather Map New forecast layout! Learn more

10-Day Weather Forecast

Advertisements
Track Severe Weather on mobile